PG2090 LGAV-LTFJ
Flight info
| Callsign | PG2090 |
|---|---|
| Flight time | 0h 58m |
| Altitude | 35000 |
| Route | KRO2N KRO UG33 DIGTI UT162 DRAMO DRAMO2U |
| Aircraft | B738/M-SDE2E3FGHIJ3J4M1/S |
Departure
| Time | 2026-05-07 11:14 |
|---|---|
| Airport | Athens Eleftherios Venizelos International Airport (LGAV) |
Arrival
| Time | 2026-05-07 12:12 |
|---|---|
| Airport | Istanbul Sabiha Gökçen International Airport (LTFJ) |
| Time | Latitude | Longitude | Altitude | Speed | Heading |
|---|---|---|---|---|---|
| 2026-05-07 10:36 | 37.94027 | 23.95294 | 299 ft | 0 kts | 39° |
| 2026-05-07 11:00 | 37.94021 | 23.95287 | 299 ft | 2 kts | 39° |
| 2026-05-07 11:00 | 37.94008 | 23.95274 | 301 ft | 2 kts | 41° |
| 2026-05-07 11:01 | 37.93996 | 23.95260 | 301 ft | 2 kts | 45° |
| 2026-05-07 11:01 | 37.93985 | 23.95244 | 299 ft | 2 kts | 53° |
| 2026-05-07 11:01 | 37.93977 | 23.95227 | 303 ft | 2 kts | 74° |
| 2026-05-07 11:01 | 37.93977 | 23.95206 | 299 ft | 2 kts | 116° |
| 2026-05-07 11:02 | 37.93980 | 23.95198 | 299 ft | 0 kts | 122° |
| 2026-05-07 11:05 | 37.93980 | 23.95199 | 299 ft | 1 kts | 122° |
| 2026-05-07 11:06 | 37.93971 | 23.95216 | 301 ft | 4 kts | 123° |
| 2026-05-07 11:06 | 37.93950 | 23.95257 | 299 ft | 7 kts | 125° |
| 2026-05-07 11:06 | 37.93910 | 23.95321 | 300 ft | 11 kts | 128° |
| 2026-05-07 11:06 | 37.93856 | 23.95412 | 299 ft | 15 kts | 117° |
| 2026-05-07 11:07 | 37.93899 | 23.95517 | 295 ft | 15 kts | 37° |
| 2026-05-07 11:07 | 37.93988 | 23.95602 | 300 ft | 18 kts | 36° |
| 2026-05-07 11:07 | 37.94102 | 23.95711 | 296 ft | 23 kts | 37° |
| 2026-05-07 11:07 | 37.94237 | 23.95839 | 297 ft | 24 kts | 37° |
| 2026-05-07 11:08 | 37.94367 | 23.95962 | 299 ft | 23 kts | 37° |
| 2026-05-07 11:08 | 37.94493 | 23.96082 | 299 ft | 22 kts | 37° |
| 2026-05-07 11:08 | 37.94614 | 23.96197 | 299 ft | 22 kts | 36° |
| 2026-05-07 11:08 | 37.94736 | 23.96312 | 300 ft | 23 kts | 37° |
| 2026-05-07 11:09 | 37.94865 | 23.96434 | 302 ft | 24 kts | 37° |
| 2026-05-07 11:09 | 37.95001 | 23.96563 | 301 ft | 25 kts | 37° |
| 2026-05-07 11:09 | 37.95117 | 23.96673 | 301 ft | 18 kts | 36° |
| 2026-05-07 11:09 | 37.95215 | 23.96766 | 303 ft | 17 kts | 37° |
| 2026-05-07 11:10 | 37.95309 | 23.96855 | 304 ft | 17 kts | 37° |
| 2026-05-07 11:10 | 37.95386 | 23.96953 | 302 ft | 15 kts | 79° |
| 2026-05-07 11:10 | 37.95349 | 23.97015 | 304 ft | 0 kts | 167° |
| 2026-05-07 11:11 | 37.95348 | 23.97015 | 304 ft | 2 kts | 168° |
| 2026-05-07 11:11 | 37.95312 | 23.97021 | 308 ft | 7 kts | 167° |
| 2026-05-07 11:12 | 37.95246 | 23.97036 | 309 ft | 10 kts | 174° |
| 2026-05-07 11:12 | 37.95180 | 23.97011 | 309 ft | 11 kts | 212° |
| 2026-05-07 11:12 | 37.95115 | 23.96950 | 308 ft | 4 kts | 216° |
| 2026-05-07 11:12 | 37.95114 | 23.96950 | 308 ft | 0 kts | 216° |
| 2026-05-07 11:13 | 37.95055 | 23.96894 | 308 ft | 38 kts | 217° |
| 2026-05-07 11:13 | 37.94610 | 23.96469 | 293 ft | 121 kts | 217° |
| 2026-05-07 11:13 | 37.93771 | 23.95652 | 473 ft | 173 kts | 217° |
| 2026-05-07 11:14 | 37.92773 | 23.94687 | 1257 ft | 185 kts | 216° |
| 2026-05-07 11:14 | 37.91770 | 23.93764 | 2401 ft | 175 kts | 213° |
| 2026-05-07 11:14 | 37.90725 | 23.92988 | 2904 ft | 179 kts | 208° |
| 2026-05-07 11:14 | 37.89602 | 23.92233 | 3286 ft | 184 kts | 208° |
| 2026-05-07 11:15 | 37.88401 | 23.91430 | 3681 ft | 204 kts | 208° |
| 2026-05-07 11:15 | 37.87112 | 23.90570 | 4162 ft | 213 kts | 207° |
| 2026-05-07 11:15 | 37.85694 | 23.90013 | 4649 ft | 221 kts | 176° |
| 2026-05-07 11:15 | 37.84302 | 23.90774 | 5334 ft | 223 kts | 141° |
| 2026-05-07 11:16 | 37.83246 | 23.92228 | 5944 ft | 228 kts | 131° |
| 2026-05-07 11:16 | 37.82279 | 23.93816 | 6540 ft | 233 kts | 129° |
| 2026-05-07 11:16 | 37.81292 | 23.95464 | 7063 ft | 237 kts | 129° |
| 2026-05-07 11:16 | 37.80283 | 23.97135 | 7586 ft | 241 kts | 129° |
| 2026-05-07 11:17 | 37.79254 | 23.98819 | 8155 ft | 243 kts | 129° |
| 2026-05-07 11:17 | 37.78212 | 24.00507 | 8715 ft | 245 kts | 129° |
| 2026-05-07 11:17 | 37.77139 | 24.02237 | 9171 ft | 252 kts | 129° |
| 2026-05-07 11:17 | 37.76062 | 24.03971 | 9812 ft | 252 kts | 129° |
| 2026-05-07 11:18 | 37.74907 | 24.05715 | 10068 ft | 268 kts | 134° |
| 2026-05-07 11:18 | 37.73570 | 24.07429 | 10398 ft | 277 kts | 136° |
| 2026-05-07 11:18 | 37.72183 | 24.09152 | 10836 ft | 281 kts | 136° |
| 2026-05-07 11:18 | 37.70777 | 24.10897 | 11291 ft | 285 kts | 136° |
| 2026-05-07 11:19 | 37.69361 | 24.12663 | 11781 ft | 288 kts | 136° |
| 2026-05-07 11:19 | 37.67934 | 24.14454 | 12230 ft | 291 kts | 136° |
| 2026-05-07 11:19 | 37.66510 | 24.16246 | 12683 ft | 294 kts | 136° |
| 2026-05-07 11:19 | 37.65030 | 24.18112 | 13121 ft | 301 kts | 136° |
| 2026-05-07 11:20 | 37.63524 | 24.20013 | 13232 ft | 321 kts | 136° |
| 2026-05-07 11:20 | 37.61890 | 24.22074 | 13386 ft | 344 kts | 136° |
| 2026-05-07 11:20 | 37.60147 | 24.24276 | 13568 ft | 365 kts | 136° |
| 2026-05-07 11:20 | 37.58301 | 24.26605 | 13738 ft | 386 kts | 136° |
| 2026-05-07 11:21 | 37.56357 | 24.29054 | 13900 ft | 405 kts | 136° |
| 2026-05-07 11:21 | 37.54429 | 24.31734 | 14060 ft | 422 kts | 124° |
| 2026-05-07 11:21 | 37.53278 | 24.35160 | 14484 ft | 428 kts | 101° |
| 2026-05-07 11:21 | 37.53090 | 24.38875 | 15067 ft | 428 kts | 83° |
| 2026-05-07 11:22 | 37.53782 | 24.42501 | 15618 ft | 427 kts | 65° |
| 2026-05-07 11:22 | 37.55303 | 24.45704 | 16092 ft | 427 kts | 47° |
| 2026-05-07 11:22 | 37.57519 | 24.48149 | 16546 ft | 425 kts | 28° |
| 2026-05-07 11:22 | 37.60214 | 24.49630 | 17023 ft | 422 kts | 11° |
| 2026-05-07 11:23 | 37.62126 | 24.50005 | 17335 ft | 420 kts | 360° |
| 2026-05-07 11:23 | 37.65053 | 24.50031 | 17841 ft | 421 kts | 356° |
| 2026-05-07 11:23 | 37.68002 | 24.49954 | 18286 ft | 425 kts | 355° |
| 2026-05-07 11:23 | 37.70977 | 24.49860 | 18687 ft | 429 kts | 355° |
| 2026-05-07 11:24 | 37.73974 | 24.49781 | 19111 ft | 432 kts | 355° |
| 2026-05-07 11:24 | 37.76983 | 24.49724 | 19536 ft | 434 kts | 356° |
| 2026-05-07 11:24 | 37.80014 | 24.49683 | 19949 ft | 437 kts | 356° |
| 2026-05-07 11:24 | 37.83063 | 24.49652 | 20103 ft | 439 kts | 356° |
| 2026-05-07 11:25 | 37.86115 | 24.49624 | 20135 ft | 439 kts | 356° |
| 2026-05-07 11:25 | 37.89169 | 24.49598 | 20140 ft | 439 kts | 356° |
| 2026-05-07 11:25 | 37.92230 | 24.49570 | 20138 ft | 439 kts | 356° |
| 2026-05-07 11:25 | 37.95288 | 24.49540 | 20138 ft | 439 kts | 356° |
| 2026-05-07 11:26 | 37.98346 | 24.49515 | 20145 ft | 440 kts | 357° |
| 2026-05-07 11:26 | 38.01394 | 24.49995 | 20133 ft | 446 kts | 12° |
| 2026-05-07 11:26 | 38.04333 | 24.51150 | 20119 ft | 447 kts | 15° |
| 2026-05-07 11:26 | 38.07292 | 24.52366 | 20137 ft | 447 kts | 14° |
| 2026-05-07 11:27 | 38.10259 | 24.53544 | 20127 ft | 447 kts | 14° |
| 2026-05-07 11:27 | 38.13237 | 24.54678 | 20126 ft | 446 kts | 13° |
| 2026-05-07 11:27 | 38.16215 | 24.55790 | 20123 ft | 446 kts | 13° |
| 2026-05-07 11:27 | 38.19201 | 24.56902 | 20126 ft | 446 kts | 13° |
| 2026-05-07 11:28 | 38.22179 | 24.58020 | 20132 ft | 446 kts | 13° |
| 2026-05-07 11:28 | 38.25162 | 24.59143 | 20143 ft | 446 kts | 13° |
| 2026-05-07 11:28 | 38.28137 | 24.60267 | 20129 ft | 446 kts | 13° |
| 2026-05-07 11:28 | 38.31112 | 24.61391 | 20131 ft | 446 kts | 13° |
| 2026-05-07 11:29 | 38.34092 | 24.62518 | 20128 ft | 446 kts | 13° |
| 2026-05-07 11:29 | 38.37075 | 24.63647 | 20226 ft | 451 kts | 13° |
| 2026-05-07 11:29 | 38.40100 | 24.64791 | 20653 ft | 453 kts | 13° |
| 2026-05-07 11:29 | 38.43120 | 24.65936 | 21182 ft | 452 kts | 14° |
| 2026-05-07 11:30 | 38.46137 | 24.67081 | 21651 ft | 453 kts | 14° |
| 2026-05-07 11:30 | 38.49168 | 24.68231 | 22032 ft | 456 kts | 14° |
| 2026-05-07 11:30 | 38.52223 | 24.69392 | 22384 ft | 459 kts | 14° |
| 2026-05-07 11:30 | 38.55256 | 24.70545 | 22742 ft | 462 kts | 14° |
| 2026-05-07 11:31 | 38.58346 | 24.71721 | 23102 ft | 464 kts | 14° |
| 2026-05-07 11:31 | 38.61450 | 24.72904 | 23455 ft | 467 kts | 14° |
| 2026-05-07 11:31 | 38.64572 | 24.74094 | 23791 ft | 469 kts | 14° |
| 2026-05-07 11:31 | 38.67708 | 24.75292 | 24106 ft | 471 kts | 14° |
| 2026-05-07 11:32 | 38.74009 | 24.77701 | 24710 ft | 474 kts | 14° |
| 2026-05-07 11:32 | 38.77186 | 24.78917 | 24991 ft | 476 kts | 14° |
| 2026-05-07 11:32 | 38.80358 | 24.80133 | 25277 ft | 478 kts | 14° |
| 2026-05-07 11:33 | 38.83550 | 24.81357 | 25562 ft | 480 kts | 14° |
| 2026-05-07 11:33 | 38.86754 | 24.82588 | 25830 ft | 481 kts | 14° |
| 2026-05-07 11:33 | 38.89961 | 24.83825 | 26098 ft | 483 kts | 14° |
| 2026-05-07 11:33 | 38.93188 | 24.85074 | 26355 ft | 485 kts | 14° |
| 2026-05-07 11:34 | 38.96424 | 24.86328 | 26611 ft | 486 kts | 14° |
| 2026-05-07 11:34 | 38.99670 | 24.87587 | 26945 ft | 486 kts | 14° |
| 2026-05-07 11:34 | 39.02899 | 24.88841 | 27366 ft | 484 kts | 14° |
| 2026-05-07 11:34 | 39.06113 | 24.90089 | 27810 ft | 481 kts | 13° |
| 2026-05-07 11:35 | 39.09315 | 24.91333 | 28208 ft | 480 kts | 13° |
| 2026-05-07 11:35 | 39.12471 | 24.92558 | 28555 ft | 480 kts | 13° |
| 2026-05-07 11:35 | 39.15714 | 24.93812 | 28920 ft | 479 kts | 13° |
| 2026-05-07 11:35 | 39.18900 | 24.95046 | 29326 ft | 478 kts | 13° |
| 2026-05-07 11:36 | 39.22085 | 24.96281 | 29758 ft | 476 kts | 13° |
| 2026-05-07 11:36 | 39.25249 | 24.97514 | 30153 ft | 475 kts | 13° |
| 2026-05-07 11:36 | 39.28413 | 24.98750 | 30484 ft | 475 kts | 13° |
| 2026-05-07 11:36 | 39.31573 | 24.99986 | 30799 ft | 474 kts | 13° |
| 2026-05-07 11:37 | 39.34729 | 25.01222 | 31127 ft | 473 kts | 13° |
| 2026-05-07 11:37 | 39.37881 | 25.02457 | 31428 ft | 473 kts | 13° |
| 2026-05-07 11:37 | 39.40981 | 25.03673 | 31743 ft | 472 kts | 13° |
| 2026-05-07 11:37 | 39.44159 | 25.04920 | 32043 ft | 472 kts | 13° |
| 2026-05-07 11:38 | 39.47260 | 25.06138 | 32349 ft | 471 kts | 13° |
| 2026-05-07 11:38 | 39.50392 | 25.07369 | 32690 ft | 469 kts | 13° |
| 2026-05-07 11:38 | 39.53513 | 25.08598 | 33014 ft | 468 kts | 13° |
| 2026-05-07 11:38 | 39.56618 | 25.09821 | 33306 ft | 467 kts | 13° |
| 2026-05-07 11:39 | 39.59737 | 25.11049 | 33610 ft | 467 kts | 13° |
| 2026-05-07 11:39 | 39.62848 | 25.12269 | 33886 ft | 466 kts | 13° |
| 2026-05-07 11:39 | 39.65956 | 25.13482 | 34166 ft | 466 kts | 13° |
| 2026-05-07 11:39 | 39.69056 | 25.14692 | 34433 ft | 464 kts | 13° |
| 2026-05-07 11:40 | 39.72141 | 25.15898 | 34695 ft | 463 kts | 13° |
| 2026-05-07 11:40 | 39.75226 | 25.17105 | 34933 ft | 463 kts | 13° |
| 2026-05-07 11:40 | 39.78307 | 25.18314 | 35179 ft | 462 kts | 13° |
| 2026-05-07 11:40 | 39.81389 | 25.19524 | 35357 ft | 463 kts | 13° |
| 2026-05-07 11:41 | 39.84489 | 25.20648 | 35544 ft | 461 kts | 8° |
| 2026-05-07 11:41 | 39.87592 | 25.21743 | 35715 ft | 465 kts | 15° |
| 2026-05-07 11:41 | 39.90630 | 25.23151 | 36019 ft | 463 kts | 17° |
| 2026-05-07 11:41 | 39.93590 | 25.24802 | 36305 ft | 464 kts | 24° |
| 2026-05-07 11:42 | 39.96409 | 25.26874 | 36533 ft | 465 kts | 26° |
| 2026-05-07 11:42 | 39.99200 | 25.29022 | 36727 ft | 466 kts | 27° |
| 2026-05-07 11:42 | 40.01978 | 25.31183 | 36906 ft | 466 kts | 27° |
| 2026-05-07 11:42 | 40.04764 | 25.33349 | 37109 ft | 465 kts | 26° |
| 2026-05-07 11:43 | 40.07542 | 25.35497 | 37121 ft | 464 kts | 26° |
| 2026-05-07 11:43 | 40.13081 | 25.39748 | 37153 ft | 461 kts | 26° |
| 2026-05-07 11:44 | 40.18626 | 25.43987 | 37144 ft | 462 kts | 26° |
| 2026-05-07 11:44 | 40.58627 | 25.74772 | 37170 ft | 465 kts | 27° |
| 2026-05-07 11:45 | 41.01158 | 26.14014 | 37144 ft | 479 kts | 51° |
| 2026-05-07 11:45 | 41.14964 | 26.43882 | 36872 ft | 488 kts | 75° |
| 2026-05-07 11:45 | 41.06930 | 26.76300 | 37213 ft | 471 kts | 132° |
| 2026-05-07 11:45 | 40.89724 | 26.97640 | 37056 ft | 476 kts | 132° |
| 2026-05-07 11:46 | 40.87127 | 27.04605 | 37182 ft | 477 kts | 108° |
| 2026-05-07 11:46 | 40.84332 | 27.12618 | 37123 ft | 485 kts | 123° |
| 2026-05-07 11:46 | 40.80394 | 27.19907 | 37132 ft | 490 kts | 129° |
| 2026-05-07 11:47 | 40.72211 | 27.34441 | 37101 ft | 495 kts | 122° |
| 2026-05-07 11:47 | 40.65777 | 27.50244 | 37057 ft | 485 kts | 97° |
| 2026-05-07 11:47 | 40.65862 | 27.58942 | 37154 ft | 474 kts | 79° |
| 2026-05-07 11:48 | 40.66746 | 27.67562 | 37130 ft | 477 kts | 79° |
| 2026-05-07 11:48 | 40.68336 | 27.85083 | 37142 ft | 487 kts | 81° |
| 2026-05-07 11:48 | 40.69093 | 27.94012 | 36468 ft | 488 kts | 81° |
| 2026-05-07 11:49 | 40.69843 | 28.02906 | 35053 ft | 489 kts | 81° |
| 2026-05-07 11:49 | 40.70587 | 28.11807 | 33640 ft | 489 kts | 80° |
| 2026-05-07 11:49 | 40.71325 | 28.20715 | 32125 ft | 489 kts | 80° |
| 2026-05-07 11:49 | 40.72059 | 28.29653 | 30619 ft | 490 kts | 80° |
| 2026-05-07 11:50 | 40.72784 | 28.38581 | 28871 ft | 491 kts | 80° |
| 2026-05-07 11:50 | 40.73487 | 28.47360 | 28320 ft | 466 kts | 80° |
| 2026-05-07 11:50 | 40.74116 | 28.55508 | 27929 ft | 443 kts | 82° |
| 2026-05-07 11:50 | 40.74017 | 28.63588 | 27085 ft | 438 kts | 90° |
| 2026-05-07 11:51 | 40.73637 | 28.71540 | 26270 ft | 431 kts | 89° |
| 2026-05-07 11:51 | 40.73345 | 28.79372 | 25464 ft | 425 kts | 88° |
| 2026-05-07 11:51 | 40.73108 | 28.87083 | 24680 ft | 419 kts | 88° |
| 2026-05-07 11:51 | 40.72875 | 28.94704 | 23894 ft | 412 kts | 88° |
| 2026-05-07 11:52 | 40.72607 | 29.02224 | 23018 ft | 409 kts | 92° |
| 2026-05-07 11:52 | 40.71083 | 29.09485 | 22185 ft | 411 kts | 105° |
| 2026-05-07 11:52 | 40.69408 | 29.16676 | 21386 ft | 411 kts | 103° |
| 2026-05-07 11:52 | 40.68494 | 29.23956 | 20559 ft | 398 kts | 79° |
| 2026-05-07 11:53 | 40.69151 | 29.31113 | 19875 ft | 391 kts | 80° |
| 2026-05-07 11:53 | 40.69662 | 29.38191 | 19135 ft | 385 kts | 81° |
| 2026-05-07 11:53 | 40.70146 | 29.45182 | 18392 ft | 378 kts | 81° |
| 2026-05-07 11:53 | 40.70619 | 29.52022 | 17581 ft | 370 kts | 81° |
| 2026-05-07 11:54 | 40.71079 | 29.58708 | 16839 ft | 362 kts | 81° |
| 2026-05-07 11:54 | 40.71524 | 29.65236 | 16134 ft | 354 kts | 82° |
| 2026-05-07 11:54 | 40.71957 | 29.71619 | 15462 ft | 346 kts | 82° |
| 2026-05-07 11:54 | 40.72377 | 29.77877 | 14804 ft | 339 kts | 82° |
| 2026-05-07 11:55 | 40.72785 | 29.84014 | 14197 ft | 333 kts | 82° |
| 2026-05-07 11:55 | 40.73184 | 29.90051 | 13536 ft | 328 kts | 83° |
| 2026-05-07 11:55 | 40.73573 | 29.95991 | 12863 ft | 323 kts | 83° |
| 2026-05-07 11:55 | 40.74522 | 30.01600 | 12205 ft | 311 kts | 53° |
| 2026-05-07 11:56 | 40.77118 | 30.06028 | 11668 ft | 302 kts | 49° |
| 2026-05-07 11:56 | 40.79682 | 30.10375 | 11087 ft | 298 kts | 49° |
| 2026-05-07 11:56 | 40.82203 | 30.14688 | 10519 ft | 294 kts | 50° |
| 2026-05-07 11:56 | 40.85218 | 30.17847 | 10116 ft | 274 kts | 11° |
| 2026-05-07 11:57 | 40.88830 | 30.18353 | 10107 ft | 255 kts | 1° |
| 2026-05-07 11:57 | 40.92314 | 30.18621 | 10110 ft | 249 kts | 1° |
| 2026-05-07 11:57 | 40.95816 | 30.18941 | 10140 ft | 255 kts | 1° |
| 2026-05-07 11:57 | 40.99412 | 30.19287 | 10157 ft | 263 kts | 1° |
| 2026-05-07 11:58 | 41.03070 | 30.19641 | 10125 ft | 262 kts | 1° |
| 2026-05-07 11:58 | 41.06682 | 30.19984 | 10122 ft | 256 kts | 359° |
| 2026-05-07 11:58 | 41.10114 | 30.19115 | 10132 ft | 250 kts | 344° |
| 2026-05-07 11:58 | 41.13523 | 30.18052 | 10139 ft | 253 kts | 345° |
| 2026-05-07 11:59 | 41.17010 | 30.16997 | 10150 ft | 260 kts | 345° |
| 2026-05-07 11:59 | 41.20282 | 30.15065 | 10153 ft | 260 kts | 327° |
| 2026-05-07 11:59 | 41.23397 | 30.12618 | 10152 ft | 258 kts | 329° |
| 2026-05-07 11:59 | 41.26483 | 30.10262 | 10139 ft | 252 kts | 329° |
| 2026-05-07 12:00 | 41.29198 | 30.07449 | 10149 ft | 247 kts | 310° |
| 2026-05-07 12:00 | 41.31520 | 30.04037 | 10169 ft | 252 kts | 313° |
| 2026-05-07 12:00 | 41.33952 | 30.00573 | 10177 ft | 259 kts | 313° |
| 2026-05-07 12:00 | 41.36214 | 29.96858 | 10155 ft | 259 kts | 296° |
| 2026-05-07 12:01 | 41.37702 | 29.92547 | 10144 ft | 253 kts | 296° |
| 2026-05-07 12:01 | 41.39071 | 29.88265 | 10129 ft | 253 kts | 277° |
| 2026-05-07 12:01 | 41.37735 | 29.83986 | 9899 ft | 275 kts | 223° |
| 2026-05-07 12:01 | 41.34096 | 29.81976 | 9315 ft | 292 kts | 199° |
| 2026-05-07 12:02 | 41.30177 | 29.80398 | 8684 ft | 293 kts | 200° |
| 2026-05-07 12:02 | 41.26399 | 29.78839 | 8078 ft | 275 kts | 200° |
| 2026-05-07 12:02 | 41.24327 | 29.77977 | 7814 ft | 264 kts | 200° |
| 2026-05-07 12:02 | 41.22594 | 29.77256 | 7585 ft | 260 kts | 201° |
| 2026-05-07 12:03 | 41.20891 | 29.76546 | 7364 ft | 260 kts | 201° |
| 2026-05-07 12:03 | 41.19164 | 29.75828 | 7118 ft | 260 kts | 201° |
| 2026-05-07 12:03 | 41.17434 | 29.75109 | 6888 ft | 261 kts | 201° |
| 2026-05-07 12:03 | 41.15696 | 29.74390 | 6656 ft | 261 kts | 201° |
| 2026-05-07 12:04 | 41.13972 | 29.73675 | 6396 ft | 259 kts | 200° |
| 2026-05-07 12:04 | 41.12256 | 29.72963 | 6148 ft | 258 kts | 200° |
| 2026-05-07 12:04 | 41.10548 | 29.72254 | 5892 ft | 256 kts | 200° |
| 2026-05-07 12:04 | 41.08853 | 29.71554 | 5643 ft | 255 kts | 200° |
| 2026-05-07 12:05 | 41.07165 | 29.70857 | 5403 ft | 253 kts | 200° |
| 2026-05-07 12:05 | 41.05490 | 29.70165 | 5191 ft | 250 kts | 200° |
| 2026-05-07 12:05 | 41.03986 | 29.69149 | 4918 ft | 239 kts | 227° |
| 2026-05-07 12:05 | 41.02983 | 29.67468 | 4723 ft | 228 kts | 239° |
| 2026-05-07 12:06 | 41.02176 | 29.65679 | 4548 ft | 224 kts | 241° |
| 2026-05-07 12:06 | 41.01396 | 29.63899 | 4297 ft | 223 kts | 240° |
| 2026-05-07 12:06 | 41.00619 | 29.62151 | 4124 ft | 215 kts | 240° |
| 2026-05-07 12:06 | 41.00130 | 29.61057 | 4042 ft | 203 kts | 240° |
| 2026-05-07 12:07 | 40.99201 | 29.58998 | 3752 ft | 191 kts | 240° |
| 2026-05-07 12:07 | 40.98521 | 29.57488 | 3606 ft | 191 kts | 240° |
| 2026-05-07 12:07 | 40.98113 | 29.56454 | 3547 ft | 187 kts | 246° |
| 2026-05-07 12:07 | 40.97372 | 29.54367 | 3507 ft | 191 kts | 245° |
| 2026-05-07 12:08 | 40.96801 | 29.52816 | 3515 ft | 185 kts | 245° |
| 2026-05-07 12:08 | 40.96422 | 29.51794 | 3474 ft | 181 kts | 245° |
| 2026-05-07 12:08 | 40.95889 | 29.50339 | 3416 ft | 177 kts | 245° |
| 2026-05-07 12:08 | 40.95334 | 29.48847 | 3146 ft | 179 kts | 244° |
| 2026-05-07 12:09 | 40.94802 | 29.47408 | 2910 ft | 173 kts | 244° |
| 2026-05-07 12:09 | 40.94285 | 29.46011 | 2615 ft | 165 kts | 246° |
| 2026-05-07 12:09 | 40.93786 | 29.44660 | 2392 ft | 165 kts | 244° |
| 2026-05-07 12:09 | 40.93272 | 29.43312 | 2138 ft | 167 kts | 245° |
| 2026-05-07 12:10 | 40.92788 | 29.41942 | 1836 ft | 159 kts | 244° |
| 2026-05-07 12:10 | 40.92327 | 29.40688 | 1631 ft | 148 kts | 244° |
| 2026-05-07 12:10 | 40.91873 | 29.39474 | 1337 ft | 145 kts | 245° |
| 2026-05-07 12:10 | 40.91435 | 29.38286 | 1115 ft | 144 kts | 244° |
| 2026-05-07 12:11 | 40.91008 | 29.37109 | 945 ft | 142 kts | 245° |
| 2026-05-07 12:11 | 40.90590 | 29.35952 | 693 ft | 136 kts | 242° |
| 2026-05-07 12:11 | 40.90158 | 29.34791 | 518 ft | 148 kts | 243° |
| 2026-05-07 12:11 | 40.89711 | 29.33588 | 298 ft | 140 kts | 243° |
| 2026-05-07 12:12 | 40.89339 | 29.32572 | 303 ft | 102 kts | 244° |
| 2026-05-07 12:12 | 40.89089 | 29.31887 | 301 ft | 66 kts | 244° |
| 2026-05-07 12:12 | 40.88923 | 29.31446 | 295 ft | 48 kts | 243° |
| 2026-05-07 12:12 | 40.88811 | 29.31080 | 293 ft | 39 kts | 261° |
| 2026-05-07 12:13 | 40.88814 | 29.30786 | 289 ft | 21 kts | 272° |
| 2026-05-07 12:13 | 40.88812 | 29.30597 | 285 ft | 20 kts | 257° |
| 2026-05-07 12:13 | 40.88760 | 29.30437 | 281 ft | 20 kts | 242° |
| 2026-05-07 12:13 | 40.88701 | 29.30277 | 278 ft | 19 kts | 244° |
| 2026-05-07 12:14 | 40.88714 | 29.30130 | 277 ft | 18 kts | 321° |
| 2026-05-07 12:14 | 40.88797 | 29.30016 | 278 ft | 18 kts | 333° |
| 2026-05-07 12:14 | 40.88907 | 29.29946 | 284 ft | 17 kts | 335° |
| 2026-05-07 12:14 | 40.89013 | 29.29878 | 294 ft | 17 kts | 333° |
| 2026-05-07 12:15 | 40.89714 | 29.29977 | 307 ft | 381 kts | 64° |
| 2026-05-07 12:15 | 40.90299 | 29.31055 | 310 ft | 382 kts | 64° |
| 2026-05-07 12:15 | 40.90365 | 29.31223 | 310 ft | 382 kts | 64° |
| 2026-05-07 12:15 | 40.90491 | 29.31563 | 310 ft | 0 kts | 64° |
| 2026-05-07 12:16 | 40.90511 | 29.31607 | 310 ft | 9 kts | 62° |
| 2026-05-07 12:16 | 40.90549 | 29.31671 | 310 ft | 9 kts | 11° |
| 2026-05-07 12:16 | 40.90588 | 29.31646 | 310 ft | 5 kts | 333° |
| 2026-05-07 12:16 | 40.90606 | 29.31634 | 310 ft | 0 kts | 334° |